Time;durP1;ratioP1;P1;durP2;ratioP2;P2;SDS_P1;SDS_P2;PMS_P1;PMS_P2;Temp;Humidity;BMP_temperature;BMP_pressure;BME280_temperature;BME280_humidity;BME280_pressure;Samples;Min_cycle;Max_cycle;Signal;HPM_P1;HPM_P2
2022/09/04 00:00:11;;;;;;;11.77;3.50;;;;;;;19.07;100.00;100577.84;4995519;28;20026;-88
2022/09/04 00:06:04;;;;;;;9.50;3.80;;;;;;;18.96;100.00;100583.88;5088106;23;20041;-85
2022/09/04 00:09:50;;;;;;;10.48;3.60;;;;;;;18.82;100.00;100583.16;5045165;22;20042;-85
2022/09/04 00:13:23;;;;;;;7.63;3.08;;;;;;;18.94;100.00;100588.66;4925404;29;20059;-85
2022/09/04 00:16:24;;;;;;;10.95;3.80;;;;;;;19.01;100.00;100582.22;4937055;29;20054;-85
2022/09/04 00:23:30;;;;;;;6.78;3.40;;;;;;;19.08;100.00;100583.00;4985241;28;20073;-82
2022/09/04 00:26:20;;;;;;;7.50;2.97;;;;;;;19.19;100.00;100586.84;5005777;28;20101;-86
2022/09/04 00:46:16;;;;;;;9.40;2.78;;;;;;;19.01;100.00;100614.47;4728518;26;20050;-82
2022/09/04 00:49:31;;;;;;;10.55;3.15;;;;;;;18.85;100.00;100614.94;5014820;28;20026;-85
2022/09/04 00:52:30;;;;;;;8.33;3.40;;;;;;;18.72;100.00;100609.63;5003736;28;20038;-84
2022/09/04 00:55:25;;;;;;;6.70;3.38;;;;;;;18.73;100.00;100600.53;5002322;28;20305;-84
2022/09/04 00:58:37;;;;;;;7.63;3.60;;;;;;;18.73;100.00;100607.75;5013197;28;20050;-83
2022/09/04 01:01:13;;;;;;;10.18;3.53;;;;;;;18.87;100.00;100607.50;4995716;28;20061;-83
2022/09/04 01:03:52;;;;;;;5.32;3.25;;;;;;;18.98;100.00;100609.53;4998282;28;20038;-85
2022/09/04 01:07:03;;;;;;;8.25;3.60;;;;;;;18.95;100.00;100626.06;4982325;28;20053;-83
2022/09/04 01:09:52;;;;;;;7.68;3.50;;;;;;;18.96;100.00;100625.00;4991917;28;20051;-83
2022/09/04 01:13:07;;;;;;;8.30;3.30;;;;;;;18.87;100.00;100617.41;4982971;28;20079;-84
2022/09/04 01:16:09;;;;;;;8.35;3.92;;;;;;;18.95;100.00;100620.69;4983597;28;20038;-85
2022/09/04 01:18:44;;;;;;;9.00;3.67;;;;;;;18.89;100.00;100621.53;4999722;28;20047;-84
2022/09/04 01:22:05;;;;;;;10.40;3.45;;;;;;;18.87;100.00;100623.59;4982784;28;20015;-84
2022/09/04 01:25:08;;;;;;;11.50;3.50;;;;;;;18.90;100.00;100628.56;4921607;29;20047;-83
2022/09/04 01:28:08;;;;;;;6.85;3.70;;;;;;;18.91;100.00;100624.00;4905793;29;20060;-86
2022/09/04 01:31:42;;;;;;;6.78;3.45;;;;;;;18.84;100.00;100615.97;4902486;29;20032;-84
2022/09/04 01:34:52;;;;;;;5.93;3.38;;;;;;;18.60;100.00;100630.13;4904494;29;20045;-84
2022/09/04 01:37:46;;;;;;;10.52;4.15;;;;;;;18.67;100.00;100614.81;4977823;29;20031;-84
2022/09/04 01:41:12;;;;;;;6.15;3.80;;;;;;;18.71;100.00;100624.09;4974908;28;20046;-83
2022/09/04 01:43:42;;;;;;;;;;;;;;;18.74;100.00;100623.66;4999168;28;20034;-83
2022/09/04 01:49:51;;;;;;;8.07;3.83;;;;;;;18.71;100.00;100624.09;5058962;23;20041;-86
2022/09/04 01:52:46;;;;;;;8.55;3.45;;;;;;;18.71;100.00;100624.09;5033213;28;20049;-84
2022/09/04 01:56:20;;;;;;;10.32;3.47;;;;;;;18.76;100.00;100621.59;5036810;28;20038;-83
2022/09/04 01:59:12;;;;;;;13.88;4.20;;;;;;;18.78;100.00;100619.53;5019814;28;20076;-82
2022/09/04 02:02:28;;;;;;;9.90;3.42;;;;;;;18.73;100.00;100619.31;5021826;28;20073;-85
2022/09/04 02:05:20;;;;;;;8.60;3.53;;;;;;;18.54;100.00;100622.91;5032119;28;20042;-85
2022/09/04 02:08:54;;;;;;;7.65;4.05;;;;;;;18.52;100.00;100625.00;5037211;28;20090;-83
2022/09/04 02:11:50;;;;;;;19.17;4.20;;;;;;;18.60;100.00;100622.06;5037218;28;20037;-84
2022/09/04 02:15:14;;;;;;;7.20;3.63;;;;;;;18.74;100.00;100622.84;5037274;28;20097;-84
2022/09/04 02:18:18;;;;;;;6.95;3.72;;;;;;;18.84;100.00;100621.34;5020040;28;20149;-83
2022/09/04 02:21:22;;;;;;;14.60;4.07;;;;;;;18.72;100.00;100619.56;5004390;28;20049;-83
2022/09/04 02:27:18;;;;;;;10.10;3.70;;;;;;;18.48;100.00;100613.81;5092522;22;20042;-84
2022/09/04 02:30:23;;;;;;;11.27;4.25;;;;;;;18.35;100.00;100608.50;5037190;28;20026;-83
2022/09/04 02:50:28;;;;;;;9.15;4.15;;;;;;;18.74;100.00;100586.06;2387920;22;20356;-83
2022/09/04 02:53:47;;;;;;;9.05;4.93;;;;;;;18.70;100.00;100576.78;5022757;28;20035;-82
2022/09/04 03:07:30;;;;;;;6.10;3.88;;;;;;;18.38;100.00;100581.22;5258371;22;20033;-83
2022/09/04 03:13:33;;;;;;;9.68;4.80;;;;;;;18.34;100.00;100579.16;4985605;28;20070;-85
2022/09/04 03:16:17;;;;;;;9.63;4.45;;;;;;;18.47;100.00;100584.50;4992637;28;20078;-86
2022/09/04 03:19:18;;;;;;;6.28;4.28;;;;;;;18.56;100.00;100577.88;4977094;28;20058;-86
2022/09/04 03:22:14;;;;;;;8.57;4.43;;;;;;;18.39;100.00;100571.31;4976724;28;20557;-84
2022/09/04 03:25:02;;;;;;;8.25;4.80;;;;;;;18.25;100.00;100575.91;4977169;28;20038;-85
2022/09/04 03:27:31;;;;;;;9.10;4.82;;;;;;;18.30;100.00;100581.44;4976941;28;20374;-86
2022/09/04 03:30:05;;;;;;;14.00;4.60;;;;;;;18.33;100.00;100583.72;4976729;28;20049;-87
2022/09/04 03:32:42;;;;;;;15.45;4.63;;;;;;;18.46;100.00;100585.56;4959465;28;20456;-85
2022/09/04 03:35:20;;;;;;;8.13;4.05;;;;;;;18.36;100.00;100590.53;4976497;28;20555;-86
2022/09/04 03:37:55;;;;;;;6.07;4.00;;;;;;;18.21;100.00;100589.94;5082133;22;20069;-86
2022/09/04 03:40:44;;;;;;;10.30;4.40;;;;;;;18.19;100.00;100589.34;5014489;28;20034;-85
2022/09/04 03:43:22;;;;;;;16.90;5.00;;;;;;;18.21;100.00;100595.31;5016281;28;20045;-86
2022/09/04 03:46:24;;;;;;;8.02;4.53;;;;;;;18.31;100.00;100595.69;5016208;28;20175;-86
2022/09/04 03:49:27;;;;;;;13.60;5.32;;;;;;;18.18;100.00;100590.38;5015642;28;20034;-86
2022/09/04 03:52:08;;;;;;;10.57;4.70;;;;;;;18.26;100.00;100587.47;5015878;28;20433;-86
2022/09/04 03:54:53;;;;;;;7.68;5.35;;;;;;;18.25;100.00;100599.22;5016104;28;20034;-87
2022/09/04 03:57:49;;;;;;;13.82;5.00;;;;;;;18.37;100.00;100608.25;5015065;28;20440;-86
2022/09/04 04:00:20;;;;;;;6.47;4.65;;;;;;;18.40;100.00;100610.53;5015044;28;20049;-85
2022/09/04 04:03:06;;;;;;;8.38;5.00;;;;;;;18.45;100.00;100610.72;5015314;28;20033;-85
2022/09/04 04:05:48;;;;;;;8.57;5.22;;;;;;;18.44;100.00;100601.84;5015434;28;20113;-86
2022/09/04 04:08:42;;;;;;;8.57;5.20;;;;;;;18.27;100.00;100610.56;5015121;28;20041;-85
2022/09/04 04:11:29;;;;;;;9.65;4.95;;;;;;;18.27;100.00;100616.75;5015693;28;20037;-85
2022/09/04 04:14:22;;;;;;;11.90;5.40;;;;;;;18.16;100.00;100619.28;4981424;28;20042;-87
2022/09/04 04:17:09;;;;;;;9.15;5.15;;;;;;;18.08;100.00;100623.81;5014707;28;20042;-85
2022/09/04 04:19:34;;;;;;;10.82;5.18;;;;;;;18.01;100.00;100632.88;5125964;22;20073;-85
2022/09/04 04:22:05;;;;;;;9.05;5.00;;;;;;;17.95;100.00;100629.19;5014155;28;20034;-86
2022/09/04 04:24:37;;;;;;;12.90;4.70;;;;;;;17.93;100.00;100636.59;5015380;28;20038;-87
2022/09/04 04:27:24;;;;;;;6.90;5.20;;;;;;;17.95;100.00;100639.09;5016353;28;20046;-85
2022/09/04 04:30:08;;;;;;;10.68;4.78;;;;;;;17.95;100.00;100652.50;5015851;28;20514;-86
2022/09/04 04:32:58;;;;;;;9.27;5.00;;;;;;;17.98;100.00;100649.41;5018553;28;20064;-87
2022/09/04 04:36:00;;;;;;;10.40;5.88;;;;;;;17.98;100.00;100657.44;5000792;28;20053;-85
2022/09/04 04:38:51;;;;;;;10.80;5.45;;;;;;;17.96;100.00;100663.00;5162505;22;20085;-86
2022/09/04 04:42:02;;;;;;;6.93;5.88;;;;;;;17.99;100.00;100662.63;4999147;28;20030;-88
2022/09/04 04:47:43;;;;;;;17.45;5.85;;;;;;;17.94;100.00;100674.97;5015248;28;20108;-86
2022/09/04 04:50:51;;;;;;;12.73;6.43;;;;;;;17.84;100.00;100678.06;5013140;28;20045;-86
2022/09/04 04:53:30;;;;;;;16.02;7.07;;;;;;;17.71;100.00;100678.06;5013857;28;20038;-85
2022/09/04 04:56:14;;;;;;;10.32;6.13;;;;;;;17.70;100.00;100679.06;5013028;28;20040;-85
2022/09/04 04:59:19;;;;;;;12.25;6.72;;;;;;;17.80;100.00;100682.19;5012888;28;20042;-84
2022/09/04 05:01:47;;;;;;;12.98;6.97;;;;;;;17.72;100.00;100693.13;5012803;28;20034;-84
2022/09/04 05:04:28;;;;;;;10.90;6.43;;;;;;;17.86;100.00;100694.78;5012986;28;20038;-84
2022/09/04 05:07:11;;;;;;;12.10;6.72;;;;;;;17.87;100.00;100707.16;5012615;28;20121;-85
2022/09/04 05:09:57;;;;;;;10.55;6.38;;;;;;;17.95;100.00;100716.84;5012441;28;20102;-87
2022/09/04 05:12:50;;;;;;;15.23;6.53;;;;;;;18.01;100.00;100716.84;5012662;28;20072;-83
2022/09/04 05:15:31;;;;;;;8.25;5.20;;;;;;;18.25;100.00;100719.97;5012393;28;20030;-87
2022/09/04 05:18:24;;;;;;;7.28;4.90;;;;;;;18.34;100.00;100727.59;5012253;28;20377;-86
2022/09/04 05:21:06;;;;;;;8.15;4.93;;;;;;;18.39;100.00;100726.97;5012510;28;20084;-85
2022/09/04 05:23:50;;;;;;;5.57;3.25;;;;;;;18.55;100.00;100723.88;5011191;28;20034;-87
2022/09/04 05:26:35;;;;;;;9.98;3.83;;;;;;;18.75;100.00;100743.47;4994940;28;20072;-88
2022/09/04 05:29:15;;;;;;;6.85;4.88;;;;;;;18.51;100.00;100731.53;5012420;28;20125;-87
2022/09/04 05:31:52;;;;;;;6.53;4.18;;;;;;;18.58;100.00;100736.88;4996221;28;20033;-87
2022/09/04 05:34:33;;;;;;;17.45;4.60;;;;;;;18.66;100.00;100733.97;5023245;28;20042;-88
2022/09/04 05:37:07;;;;;;;7.47;4.10;;;;;;;18.97;100.00;100734.09;5022823;28;20046;-87
2022/09/04 05:39:44;;;;;;;9.55;4.22;;;;;;;19.22;100.00;100738.78;5039958;28;20033;-90
2022/09/04 05:42:36;;;;;;;9.75;4.15;;;;;;;19.26;100.00;100735.44;5032265;28;20116;-86
2022/09/04 05:45:18;;;;;;;8.30;3.90;;;;;;;19.39;100.00;100729.19;5027754;28;20041;-87
2022/09/04 05:47:58;;;;;;;12.05;3.78;;;;;;;19.76;100.00;100736.44;5030128;28;20034;-90
2022/09/04 05:50:40;;;;;;;7.28;3.50;;;;;;;20.10;100.00;100738.69;5018246;28;20050;-88
2022/09/04 05:53:38;;;;;;;7.32;3.60;;;;;;;20.43;100.00;100746.53;5020476;28;20092;-87
2022/09/04 05:56:24;;;;;;;6.80;3.70;;;;;;;20.88;100.00;100747.09;5026872;28;20029;-91
2022/09/04 05:58:56;;;;;;;9.80;3.65;;;;;;;20.47;100.00;100746.91;5000784;28;20512;-89
2022/09/04 06:01:43;;;;;;;7.50;3.53;;;;;;;19.99;100.00;100744.78;5015830;28;20029;-90
2022/09/04 06:04:53;;;;;;;6.60;3.63;;;;;;;20.11;100.00;100751.13;4998743;28;20034;-86
2022/09/04 06:07:37;;;;;;;7.78;3.58;;;;;;;21.09;100.00;100753.91;4972107;28;20074;-88
2022/09/04 06:10:37;;;;;;;9.23;3.50;;;;;;;21.26;100.00;100759.56;5000063;28;20088;-86
2022/09/04 06:13:19;;;;;;;13.98;4.50;;;;;;;21.50;100.00;100769.44;5001985;28;20430;-85
2022/09/04 06:15:54;;;;;;;6.30;3.53;;;;;;;22.14;100.00;100766.03;5017664;28;20448;-87
2022/09/04 06:18:52;;;;;;;7.93;3.00;;;;;;;22.88;100.00;100776.22;5001551;28;20499;-88
2022/09/04 06:21:32;;;;;;;9.50;3.50;;;;;;;21.91;100.00;100777.59;4906306;29;20586;-86
2022/09/04 06:24:29;;;;;;;6.43;3.72;;;;;;;22.19;100.00;100776.97;4921279;29;20137;-86
2022/09/04 06:27:23;;;;;;;6.40;3.70;;;;;;;22.29;100.00;100781.78;4918514;29;20144;-87
2022/09/04 06:30:20;;;;;;;9.10;4.00;;;;;;;22.38;100.00;100785.78;4849707;29;20429;-92
2022/09/04 06:33:05;;;;;;;7.05;3.55;;;;;;;22.53;100.00;100788.88;4947113;29;20036;-89
2022/09/04 06:35:58;;;;;;;9.20;3.88;;;;;;;22.86;100.00;100802.66;4957399;29;20491;-90
2022/09/04 06:38:32;;;;;;;8.75;3.97;;;;;;;23.24;100.00;100802.13;4941082;29;20075;-89
2022/09/04 06:41:07;;;;;;;8.57;3.95;;;;;;;23.43;100.00;100805.56;4986786;28;20051;-91
2022/09/04 06:43:48;;;;;;;6.38;3.22;;;;;;;24.44;100.00;100807.44;4997824;28;20038;-88
2022/09/04 06:46:22;;;;;;;10.75;3.80;;;;;;;25.11;100.00;100814.47;4996582;28;20130;-89
2022/09/04 06:49:12;;;;;;;9.75;4.28;;;;;;;23.77;100.00;100807.31;5003411;28;20045;-89
2022/09/04 06:52:03;;;;;;;7.88;4.10;;;;;;;22.95;100.00;100812.06;5006283;28;20041;-86
2022/09/04 06:54:59;;;;;;;10.00;5.25;;;;;;;23.43;100.00;100810.97;4992431;28;20164;-88
2022/09/04 06:57:57;;;;;;;8.27;4.43;;;;;;;24.04;100.00;100818.38;5002593;28;20072;-89
2022/09/04 07:00:22;;;;;;;8.27;4.60;;;;;;;23.34;100.00;100817.75;5013941;28;20081;-86
2022/09/04 07:03:01;;;;;;;5.75;4.20;;;;;;;23.70;100.00;100817.44;5021018;28;20042;-85
2022/09/04 07:05:30;;;;;;;6.30;4.40;;;;;;;23.97;100.00;100815.81;5006864;28;20043;-88
2022/09/04 07:08:20;;;;;;;11.05;4.13;;;;;;;23.75;100.00;100814.03;5005419;28;20139;-86
2022/09/04 07:11:16;;;;;;;7.72;3.90;;;;;;;23.79;100.00;100807.91;5018945;28;20040;-89
2022/09/04 07:14:15;;;;;;;4.78;3.30;;;;;;;23.99;100.00;100802.88;5023053;28;20029;-86
2022/09/04 07:17:02;;;;;;;7.45;4.03;;;;;;;24.18;100.00;100804.31;5022929;28;20042;-84
2022/09/04 07:19:44;;;;;;;7.95;4.03;;;;;;;24.41;100.00;100807.94;5012451;28;20484;-87
2022/09/04 07:22:18;;;;;;;8.70;3.75;;;;;;;24.90;100.00;100806.28;4995584;28;20416;-85
2022/09/04 07:25:10;;;;;;;6.20;3.65;;;;;;;25.49;100.00;100826.34;5007113;28;20123;-90
2022/09/04 07:27:57;;;;;;;9.07;3.85;;;;;;;25.51;100.00;100830.50;4994283;28;20060;-91
2022/09/04 07:30:28;;;;;;;4.38;3.33;;;;;;;25.28;100.00;100833.41;5017281;28;20030;-91
2022/09/04 07:33:04;;;;;;;6.40;3.30;;;;;;;25.06;100.00;100832.53;5009144;28;20408;-88
2022/09/04 07:36:02;;;;;;;8.75;3.70;;;;;;;25.79;97.53;100845.72;5010106;28;20038;-84
2022/09/04 07:38:47;;;;;;;10.80;3.08;;;;;;;25.68;98.54;100846.72;5010755;28;20030;-86
2022/09/04 07:41:52;;;;;;;4.15;2.67;;;;;;;25.13;100.00;100844.88;5003293;28;20026;-87
2022/09/04 07:44:31;;;;;;;6.07;3.10;;;;;;;24.91;100.00;100848.59;4986346;28;20049;-89
2022/09/04 07:47:35;;;;;;;6.93;2.65;;;;;;;25.07;100.00;100850.47;4997902;28;20500;-89
2022/09/04 07:50:30;;;;;;;10.77;3.38;;;;;;;24.76;100.00;100851.06;4983562;28;20047;-91
2022/09/04 07:53:24;;;;;;;8.93;4.55;;;;;;;24.36;100.00;100864.75;4994623;28;20068;-89
2022/09/04 07:56:01;;;;;;;8.40;3.70;;;;;;;24.24;100.00;100861.28;4993973;28;20045;-91
2022/09/04 07:58:37;;;;;;;14.38;3.95;;;;;;;24.44;100.00;100867.06;4993611;28;20031;-91
2022/09/04 08:01:40;;;;;;;5.30;3.08;;;;;;;24.16;100.00;100871.44;4984507;28;20039;-92
2022/09/04 08:04:36;;;;;;;7.25;3.10;;;;;;;24.39;100.00;100870.50;5000045;28;20394;-89
2022/09/04 08:07:27;;;;;;;7.63;4.00;;;;;;;24.09;100.00;100865.34;5003077;28;20038;-88
2022/09/04 08:10:04;;;;;;;6.25;3.78;;;;;;;24.43;100.00;100865.41;5003486;28;20111;-88
2022/09/04 08:12:48;;;;;;;5.88;3.40;;;;;;;25.24;100.00;100861.28;5008699;28;20092;-91
2022/09/04 08:15:35;;;;;;;12.82;4.00;;;;;;;26.12;99.33;100870.00;4991752;28;20036;-89
2022/09/04 08:18:26;;;;;;;5.13;3.50;;;;;;;25.67;99.32;100869.50;5010110;28;20045;-87
2022/09/04 08:21:32;;;;;;;6.45;3.47;;;;;;;25.72;100.00;100872.25;5010820;28;20034;-86
2022/09/04 08:24:15;;;;;;;7.35;3.80;;;;;;;26.22;97.45;100879.41;5020873;28;20017;-90
2022/09/04 08:26:56;;;;;;;6.95;4.13;;;;;;;25.89;99.78;100886.59;5030537;28;20061;-89
2022/09/04 08:29:31;;;;;;;;;;;;;;;26.61;94.05;100889.81;5021490;28;20048;-91
2022/09/04 08:32:18;;;;;;;4.88;2.80;;;;;;;26.96;95.82;100897.47;5034600;28;19921;-90
2022/09/04 08:35:19;;;;;;;5.70;3.20;;;;;;;27.00;92.58;100898.59;5025492;28;20041;-91
2022/09/04 08:38:46;;;;;;;7.05;3.22;;;;;;;27.44;91.18;100890.19;5023972;28;20084;-90
2022/09/04 08:41:44;;;;;;;8.02;4.30;;;;;;;27.60;90.24;100895.44;4953081;29;20043;-90
2022/09/04 08:44:34;;;;;;;7.72;3.17;;;;;;;27.99;85.78;100898.59;4934441;29;20425;-90
2022/09/04 08:47:10;;;;;;;9.32;3.60;;;;;;;28.13;86.25;100901.66;4942076;29;20047;-90
2022/09/04 08:50:03;;;;;;;5.90;3.20;;;;;;;28.60;85.16;100915.09;4960353;29;20035;-91
2022/09/04 08:52:49;;;;;;;7.28;3.30;;;;;;;27.90;85.21;100902.94;4960852;29;20091;-90
2022/09/04 08:55:37;;;;;;;9.55;3.97;;;;;;;28.79;83.55;100910.78;4961215;28;20031;-91
2022/09/04 08:58:24;;;;;;;12.10;5.28;;;;;;;28.27;83.33;100916.44;4956302;28;20047;-93
2022/09/04 09:01:08;;;;;;;6.47;3.72;;;;;;;28.79;82.32;100916.22;4961313;28;20083;-90
2022/09/04 09:03:55;;;;;;;6.78;3.75;;;;;;;28.71;82.48;100908.56;4958527;28;20044;-91
2022/09/04 09:06:43;;;;;;;8.75;4.85;;;;;;;28.67;82.69;100900.13;4960398;28;20047;-90
2022/09/04 09:09:45;;;;;;;8.50;5.13;;;;;;;28.74;82.28;100902.56;4965310;28;20067;-93
2022/09/04 09:12:23;;;;;;;9.48;6.65;;;;;;;29.02;82.03;100898.47;4987113;28;20129;-90
2022/09/04 09:15:16;;;;;;;9.73;4.75;;;;;;;29.84;76.46;100898.03;5000036;28;20042;-91
2022/09/04 09:18:01;;;;;;;7.88;5.63;;;;;;;29.48;78.99;100891.84;5002007;28;20038;-93
2022/09/04 09:20:45;;;;;;;11.70;5.78;;;;;;;29.89;77.25;100889.00;5002571;28;20023;-91
2022/09/04 09:23:56;;;;;;;13.40;6.57;;;;;;;28.51;74.76;100897.63;4991492;28;20076;-91
2022/09/04 09:26:25;;;;;;;11.27;5.70;;;;;;;29.00;74.53;100895.22;5011290;28;20034;-87
2022/09/04 09:29:11;;;;;;;9.23;6.47;;;;;;;29.41;72.22;100898.69;5012228;28;20030;-87
2022/09/04 09:32:15;;;;;;;18.60;9.23;;;;;;;29.82;70.74;100891.19;5013136;28;20029;-88
2022/09/04 09:35:20;;;;;;;12.73;8.85;;;;;;;30.02;68.47;100891.94;4991121;28;20049;-87
2022/09/04 09:38:14;;;;;;;17.92;11.85;;;;;;;29.71;70.18;100895.84;5015053;28;20109;-88
2022/09/04 09:41:15;;;;;;;18.30;12.95;;;;;;;29.79;69.70;100891.75;5012743;28;20403;-93
2022/09/04 09:44:08;;;;;;;19.55;12.15;;;;;;;30.10;68.21;100885.84;4993238;28;20049;-90
2022/09/04 09:47:04;;;;;;;14.82;9.00;;;;;;;30.05;69.15;100890.53;5009656;28;20056;-89
2022/09/04 09:49:42;;;;;;;10.57;7.65;;;;;;;30.12;67.56;100900.06;4993537;28;20053;-91
2022/09/04 09:52:16;;;;;;;13.05;7.53;;;;;;;30.22;68.58;100891.00;5006828;28;20062;-90
2022/09/04 09:54:48;;;;;;;11.88;7.32;;;;;;;30.73;66.51;100896.91;5009260;28;20026;-85
2022/09/04 09:57:34;;;;;;;12.10;7.97;;;;;;;31.45;62.48;100892.41;5019705;28;20057;-86
2022/09/04 10:00:11;;;;;;;11.60;8.52;;;;;;;31.27;63.50;100886.56;4981024;28;20104;-86
2022/09/04 10:03:01;;;;;;;10.85;7.47;;;;;;;31.61;61.68;100885.66;4998511;28;20496;-84
2022/09/04 10:05:30;;;;;;;15.02;8.52;;;;;;;31.80;61.14;100885.69;4983232;28;20031;-89
2022/09/04 10:08:14;;;;;;;9.15;7.95;;;;;;;31.40;62.08;100884.25;4998028;28;20042;-84
2022/09/04 10:11:06;;;;;;;16.83;8.57;;;;;;;30.66;63.77;100885.47;5004590;28;20034;-84
2022/09/04 10:14:01;;;;;;;12.70;8.50;;;;;;;30.53;64.76;100886.13;5006629;28;20045;-84
2022/09/04 10:19:42;;;;;;;14.93;9.32;;;;;;;30.32;65.38;100881.91;5010513;28;20101;-93
2022/09/04 10:22:10;;;;;;;12.05;9.13;;;;;;;30.49;65.21;100880.41;4997943;28;20125;-85
2022/09/04 10:24:56;;;;;;;12.48;8.25;;;;;;;30.28;65.79;100887.13;4985349;28;20033;-82
2022/09/04 10:27:37;;;;;;;11.05;8.10;;;;;;;29.89;67.54;100884.34;4981298;28;20050;-86
2022/09/04 10:30:18;;;;;;;10.35;8.05;;;;;;;30.54;64.95;100888.59;4992198;28;20397;-87
2022/09/04 10:33:02;;;;;;;13.23;7.75;;;;;;;30.42;64.26;100885.41;4991152;28;20524;-87
2022/09/04 10:35:51;;;;;;;10.68;9.25;;;;;;;30.66;63.68;100891.78;4992174;28;20072;-87
2022/09/04 10:38:31;;;;;;;13.23;8.15;;;;;;;30.55;64.75;100889.41;4993792;28;20350;-87
2022/09/04 10:41:24;;;;;;;11.38;8.52;;;;;;;30.46;66.45;100880.19;4997423;28;20089;-89
2022/09/04 10:44:14;;;;;;;10.88;7.68;;;;;;;31.01;64.54;100885.22;5030077;23;20105;-88
2022/09/04 10:47:09;;;;;;;9.52;5.68;;;;;;;32.15;60.31;100883.31;4984418;28;20047;-89
2022/09/04 10:49:53;;;;;;;8.18;6.13;;;;;;;32.34;59.08;100890.72;4989682;28;20062;-89
2022/09/04 10:52:40;;;;;;;14.25;7.07;;;;;;;31.97;60.00;100888.75;4978930;28;20096;-88
2022/09/04 10:55:42;;;;;;;10.07;7.10;;;;;;;31.61;60.96;100881.00;4999669;28;20125;-91
2022/09/04 10:58:38;;;;;;;10.07;6.28;;;;;;;30.92;61.87;100884.19;4996369;28;20054;-88
2022/09/04 11:01:51;;;;;;;7.35;5.75;;;;;;;30.79;63.42;100879.38;4944063;28;20034;-89
2022/09/04 11:04:35;;;;;;;;;;;;;;;31.09;61.25;100873.59;4929870;28;20069;-92
2022/09/04 11:07:25;;;;;;;6.15;4.70;;;;;;;32.09;59.83;100875.44;4999376;28;19917;-88
2022/09/04 11:10:41;;;;;;;12.23;7.85;;;;;;;31.37;60.06;100873.88;4999712;28;20034;-92
2022/09/04 11:13:22;;;;;;;8.50;4.88;;;;;;;32.57;56.79;100876.09;4882492;29;20048;-91
2022/09/04 11:15:56;;;;;;;9.05;5.45;;;;;;;32.76;55.43;100874.97;4926732;29;20071;-90
2022/09/04 11:18:44;;;;;;;15.85;6.20;;;;;;;32.03;59.10;100882.91;4936097;29;20028;-86
2022/09/04 11:21:15;;;;;;;9.50;7.38;;;;;;;31.39;61.18;100877.16;4935742;29;20078;-90
2022/09/04 11:24:25;;;;;;;7.85;5.03;;;;;;;32.32;58.54;100871.81;4979785;28;20356;-83
2022/09/04 11:27:02;;;;;;;7.18;4.45;;;;;;;32.86;57.84;100868.47;4932217;29;20107;-87
2022/09/04 11:30:03;;;;;;;7.32;4.15;;;;;;;32.65;56.47;100878.16;4984759;28;20057;-88
2022/09/04 11:33:01;;;;;;;11.23;6.28;;;;;;;31.35;61.31;100871.44;4988741;28;20043;-86
2022/09/04 11:35:39;;;;;;;10.80;5.30;;;;;;;31.27;60.75;100870.13;4983938;28;20089;-92
2022/09/04 11:38:49;;;;;;;8.38;5.00;;;;;;;31.35;62.14;100865.13;4997185;28;20035;-92
2022/09/04 11:41:30;;;;;;;8.25;5.20;;;;;;;31.81;58.52;100868.97;4977134;28;20050;-90
2022/09/04 11:44:04;;;;;;;9.90;5.50;;;;;;;31.97;57.79;100861.34;4996747;28;20038;-87
2022/09/04 11:47:00;;;;;;;10.02;5.40;;;;;;;32.11;57.77;100865.84;4996707;28;20125;-90
2022/09/04 11:49:51;;;;;;;6.28;4.57;;;;;;;32.14;57.29;100862.50;4997878;28;20038;-89
2022/09/04 11:52:27;;;;;;;8.57;4.43;;;;;;;31.19;60.17;100859.00;4999467;28;20035;-87
2022/09/04 11:55:23;;;;;;;6.50;4.75;;;;;;;30.49;63.66;100852.25;4997269;28;20034;-88
2022/09/04 11:58:10;;;;;;;9.82;6.15;;;;;;;29.47;66.84;100851.16;4998742;28;20034;-89
2022/09/04 12:01:21;;;;;;;9.65;5.18;;;;;;;28.70;70.12;100852.41;4997672;28;20038;-89
2022/09/04 12:03:50;;;;;;;8.95;4.90;;;;;;;28.59;70.43;100846.09;4979287;28;20088;-89
2022/09/04 12:06:28;;;;;;;14.18;4.65;;;;;;;28.69;71.53;100834.38;4996691;28;20041;-87
2022/09/04 12:09:08;;;;;;;12.25;5.78;;;;;;;28.54;71.04;100847.97;5002005;28;20046;-88
2022/09/04 12:12:13;;;;;;;7.38;5.10;;;;;;;28.08;73.22;100834.31;4984663;28;20117;-86
2022/09/04 12:14:53;;;;;;;8.80;5.05;;;;;;;28.04;71.52;100844.09;5004118;28;20042;-89
2022/09/04 12:17:47;;;;;;;7.22;3.85;;;;;;;28.03;71.74;100836.19;5002189;28;20432;-86
2022/09/04 12:20:37;;;;;;;7.30;4.68;;;;;;;27.71;74.88;100825.47;4998687;28;20078;-92
2022/09/04 12:23:09;;;;;;;7.60;4.95;;;;;;;27.81;75.15;100830.94;4997576;28;20038;-87
2022/09/04 12:25:56;;;;;;;8.07;4.05;;;;;;;27.84;75.20;100826.91;4996425;28;20053;-90
2022/09/04 12:28:43;;;;;;;6.28;3.88;;;;;;;27.83;75.34;100820.63;4997912;28;20109;-88
2022/09/04 12:31:30;;;;;;;7.80;4.28;;;;;;;28.14;74.90;100816.88;4979981;28;20131;-88
2022/09/04 12:34:22;;;;;;;8.68;3.80;;;;;;;28.39;74.25;100826.19;4999467;28;20041;-91
2022/09/04 12:37:05;;;;;;;4.93;4.10;;;;;;;28.15;75.68;100820.44;4965851;28;20083;-85
2022/09/04 12:39:43;;;;;;;7.82;5.00;;;;;;;28.10;75.03;100826.72;5015600;28;20265;-91
2022/09/04 12:42:23;;;;;;;6.75;3.33;;;;;;;27.88;77.24;100820.63;5001956;28;20035;-89
2022/09/04 12:45:01;;;;;;;7.55;4.15;;;;;;;28.17;75.57;100816.34;4999335;28;20034;-90
2022/09/04 12:47:56;;;;;;;13.65;5.20;;;;;;;27.77;75.32;100821.69;4983062;28;20045;-86
2022/09/04 12:51:08;;;;;;;6.85;4.15;;;;;;;27.46;76.44;100822.66;5000555;28;20034;-89
2022/09/04 12:53:58;;;;;;;7.20;4.00;;;;;;;27.46;75.53;100818.06;5000340;28;20046;-87
2022/09/04 12:56:30;;;;;;;7.53;4.40;;;;;;;27.85;74.20;100818.44;5002634;28;20066;-87
2022/09/04 12:59:14;;;;;;;9.60;3.75;;;;;;;27.73;74.71;100812.44;5003072;28;20428;-89
2022/09/04 13:01:50;;;;;;;7.38;4.20;;;;;;;27.51;76.39;100811.81;4968084;28;20046;-89
2022/09/04 13:04:24;;;;;;;9.48;4.30;;;;;;;27.40;77.94;100810.09;5002118;28;20034;-90
2022/09/04 13:07:15;;;;;;;7.80;4.22;;;;;;;27.54;78.24;100811.28;5003362;28;20038;-89
2022/09/04 13:09:58;;;;;;;7.55;4.22;;;;;;;27.51;79.06;100811.81;5002671;28;20040;-87
2022/09/04 13:12:40;;;;;;;5.95;3.90;;;;;;;27.58;76.58;100802.28;4983911;28;20038;-88
2022/09/04 13:15:18;;;;;;;8.38;2.80;;;;;;;27.74;75.64;100808.63;5000493;28;20035;-90
2022/09/04 13:18:08;;;;;;;4.57;2.70;;;;;;;27.73;74.65;100815.16;4981894;28;20137;-87
2022/09/04 13:20:43;;;;;;;8.25;3.58;;;;;;;27.98;70.86;100823.38;4999628;28;20045;-85
2022/09/04 13:23:56;;;;;;;11.75;4.40;;;;;;;27.75;72.05;100812.97;5000341;28;20049;-83
2022/09/04 13:26:59;;;;;;;6.75;2.78;;;;;;;27.71;72.79;100811.84;4953379;28;20131;-84
2022/09/04 13:29:45;;;;;;;5.53;3.38;;;;;;;27.67;74.46;100822.50;5009077;28;20069;-83
2022/09/04 13:32:23;;;;;;;7.63;3.03;;;;;;;27.86;74.90;100817.38;4989555;28;20038;-83
2022/09/04 13:35:16;;;;;;;4.30;2.65;;;;;;;27.85;74.18;100823.06;4990561;28;20118;-85
2022/09/04 13:38:00;;;;;;;6.03;3.05;;;;;;;27.78;73.22;100823.31;5000576;28;20034;-83
2022/09/04 13:41:11;;;;;;;7.10;2.90;;;;;;;27.76;73.80;100814.59;5002710;28;20034;-83
2022/09/04 13:44:09;;;;;;;10.70;3.55;;;;;;;27.82;70.89;100813.53;5009145;28;20042;-84
2022/09/04 13:47:00;;;;;;;6.18;3.15;;;;;;;27.74;70.51;100823.03;4984401;28;20085;-85
2022/09/04 13:49:46;;;;;;;5.32;3.17;;;;;;;27.47;70.56;100822.41;5002788;28;20026;-83
2022/09/04 13:52:44;;;;;;;4.15;2.40;;;;;;;27.54;72.16;100805.84;4992199;28;20087;-85
2022/09/04 13:55:24;;;;;;;5.32;2.65;;;;;;;27.49;71.07;100811.25;4988447;28;20050;-83
2022/09/04 13:58:09;;;;;;;14.02;3.40;;;;;;;27.50;72.14;100810.16;4998708;28;20125;-84
2022/09/04 14:00:44;;;;;;;6.47;3.45;;;;;;;27.40;71.52;100815.53;4996713;28;20109;-85
2022/09/04 14:03:15;;;;;;;8.73;3.10;;;;;;;27.39;72.66;100813.91;5003474;28;20023;-83
2022/09/04 14:05:44;;;;;;;8.55;2.78;;;;;;;27.70;72.84;100816.50;4985383;28;20046;-84
2022/09/04 14:08:16;;;;;;;8.40;3.20;;;;;;;27.79;71.19;100813.25;5012606;28;20026;-85